Time;durP1;ratioP1;P1;durP2;ratioP2;P2;SDS_P1;SDS_P2;PMS_P1;PMS_P2;Temp;Humidity;BMP_temperature;BMP_pressure;BME280_temperature;BME280_humidity;BME280_pressure;Samples;Min_cycle;Max_cycle;Signal;HPM_P1;HPM_P2
2021/10/01 00:01:54;;;;;;;3.43;1.40;;;9.00;99.90;;;;;;5053376;28;20202;-61
2021/10/01 00:04:21;;;;;;;4.27;1.30;;;9.00;99.90;;;;;;5052838;28;20233;-60
2021/10/01 00:06:47;;;;;;;1.97;0.97;;;9.10;99.90;;;;;;5053173;28;20620;-60
2021/10/01 00:09:14;;;;;;;5.83;1.10;;;9.20;99.90;;;;;;5052940;28;20216;-60
2021/10/01 00:11:43;;;;;;;2.57;1.20;;;9.10;99.90;;;;;;5053038;28;20210;-59
2021/10/01 00:14:11;;;;;;;3.13;1.33;;;9.00;99.90;;;;;;5052922;28;20627;-60
2021/10/01 00:16:38;;;;;;;3.47;1.47;;;9.00;99.90;;;;;;5052974;28;20226;-59
2021/10/01 00:19:05;;;;;;;2.73;1.30;;;9.10;99.90;;;;;;5052859;28;20205;-60
2021/10/01 00:21:31;;;;;;;2.07;1.27;;;9.20;99.90;;;;;;5052708;28;20572;-59
2021/10/01 00:23:58;;;;;;;3.20;1.17;;;9.20;99.90;;;;;;5052955;28;20237;-59
2021/10/01 00:26:25;;;;;;;2.00;1.43;;;9.30;99.90;;;;;;5052614;28;20206;-59
2021/10/01 00:28:52;;;;;;;2.27;1.20;;;9.30;99.90;;;;;;5052753;28;20201;-59
2021/10/01 00:31:20;;;;;;;2.90;1.27;;;9.30;99.90;;;;;;5052750;28;20267;-60
2021/10/01 00:33:46;;;;;;;2.40;1.40;;;9.30;99.90;;;;;;5052482;28;20232;-60
2021/10/01 00:36:13;;;;;;;2.77;1.30;;;9.30;99.90;;;;;;5052736;28;20217;-60
2021/10/01 00:38:40;;;;;;;2.67;1.33;;;9.20;99.90;;;;;;5052846;28;20205;-59
2021/10/01 00:41:07;;;;;;;5.23;1.17;;;9.20;99.90;;;;;;5052671;28;20251;-60
2021/10/01 00:43:33;;;;;;;1.70;1.20;;;9.20;99.90;;;;;;5052249;28;20233;-60
2021/10/01 00:46:00;;;;;;;3.37;1.30;;;9.20;99.90;;;;;;5052511;28;20593;-60
2021/10/01 00:48:28;;;;;;;3.93;1.10;;;9.10;99.90;;;;;;5052250;28;20257;-60
2021/10/01 00:50:55;;;;;;;3.63;1.40;;;9.10;99.90;;;;;;5052308;28;20257;-61
2021/10/01 00:53:22;;;;;;;2.10;1.23;;;9.10;99.90;;;;;;5052109;28;20275;-60
2021/10/01 00:55:50;;;;;;;3.50;1.37;;;9.10;99.90;;;;;;5052038;28;20575;-60
2021/10/01 00:58:16;;;;;;;6.60;1.40;;;9.10;99.90;;;;;;5051841;28;20229;-60
2021/10/01 01:00:53;;;;;;;4.30;1.40;;;9.00;99.90;;;;;;5051974;28;20669;-60
2021/10/01 01:03:20;;;;;;;1.77;1.10;;;8.90;99.90;;;;;;5051967;28;20279;-59
2021/10/01 01:06:01;;;;;;;1.87;1.10;;;8.70;99.90;;;;;;5051810;28;20224;-60
2021/10/01 01:08:38;;;;;;;3.10;1.20;;;8.70;99.90;;;;;;5052117;28;20206;-59
2021/10/01 01:11:15;;;;;;;2.33;1.03;;;8.70;99.90;;;;;;5052498;28;20213;-59
2021/10/01 01:13:48;;;;;;;2.10;1.10;;;8.70;99.90;;;;;;5052177;28;20229;-60
2021/10/01 01:16:22;;;;;;;4.00;1.20;;;8.90;99.90;;;;;;5051474;28;20213;-59
2021/10/01 01:18:52;;;;;;;2.33;1.40;;;8.90;99.90;;;;;;5051914;28;20217;-59
2021/10/01 01:21:32;;;;;;;3.73;1.90;;;8.90;99.90;;;;;;5051778;28;20210;-60
2021/10/01 01:24:14;;;;;;;2.37;1.40;;;8.80;99.90;;;;;;5051480;28;20233;-59
2021/10/01 01:26:55;;;;;;;5.13;1.30;;;8.70;99.90;;;;;;5051638;28;20263;-59
2021/10/01 01:29:28;;;;;;;3.27;1.10;;;8.70;99.90;;;;;;5051557;28;20205;-60
2021/10/01 01:32:10;;;;;;;5.03;2.83;;;8.70;99.90;;;;;;5051777;28;20314;-59
2021/10/01 01:34:40;;;;;;;5.60;3.80;;;8.70;99.90;;;;;;5051205;28;20225;-59
2021/10/01 01:37:11;;;;;;;3.10;1.80;;;8.70;99.90;;;;;;5051239;28;20225;-60
2021/10/01 01:39:40;;;;;;;3.00;1.40;;;8.60;99.90;;;;;;5051228;28;20205;-59
2021/10/01 01:42:07;;;;;;;1.80;1.00;;;8.70;99.90;;;;;;5051322;28;20629;-59
2021/10/01 01:44:35;;;;;;;3.70;1.50;;;8.70;99.90;;;;;;5051396;28;20234;-60
2021/10/01 01:47:04;;;;;;;2.07;1.10;;;8.80;99.90;;;;;;5051928;28;20201;-59
2021/10/01 01:49:32;;;;;;;3.37;1.40;;;8.90;99.90;;;;;;5051216;28;20205;-59
2021/10/01 01:52:00;;;;;;;2.93;1.20;;;9.00;99.90;;;;;;5051196;28;20232;-60
2021/10/01 01:54:27;;;;;;;3.10;1.53;;;9.20;99.90;;;;;;5051035;28;20230;-60
2021/10/01 01:56:55;;;;;;;5.17;1.83;;;9.20;99.90;;;;;;5051090;28;20233;-60
2021/10/01 01:59:24;;;;;;;4.03;1.43;;;9.20;99.90;;;;;;5051019;28;20692;-60
2021/10/01 02:01:52;;;;;;;3.80;1.80;;;9.30;99.90;;;;;;5050994;28;20205;-59
2021/10/01 02:04:22;;;;;;;5.67;1.77;;;9.30;99.90;;;;;;5050813;28;20229;-61
2021/10/01 02:06:50;;;;;;;2.90;1.43;;;9.30;99.90;;;;;;5051175;28;20201;-60
2021/10/01 02:09:18;;;;;;;2.20;1.30;;;9.30;99.90;;;;;;5051121;28;20502;-60
2021/10/01 02:11:47;;;;;;;2.33;1.00;;;9.30;99.90;;;;;;5051391;28;20202;-60
2021/10/01 02:14:15;;;;;;;4.83;0.93;;;9.40;99.90;;;;;;5050694;28;20225;-60
2021/10/01 02:16:43;;;;;;;2.03;1.00;;;9.40;99.90;;;;;;5050640;28;20205;-60
2021/10/01 02:19:12;;;;;;;4.03;1.50;;;9.40;99.90;;;;;;5050607;28;20228;-59
2021/10/01 02:21:41;;;;;;;2.43;1.20;;;9.30;99.90;;;;;;5050964;28;20216;-59
2021/10/01 02:24:08;;;;;;;4.63;1.10;;;9.30;99.90;;;;;;5050552;28;20236;-60
2021/10/01 02:26:37;;;;;;;3.23;1.00;;;9.20;99.90;;;;;;5050824;28;20217;-60
2021/10/01 02:29:12;;;;;;;2.10;1.03;;;9.10;99.90;;;;;;5054191;28;20201;-60
2021/10/01 02:31:52;;;;;;;2.73;1.40;;;9.00;99.90;;;;;;5055067;28;20197;-60
2021/10/01 02:34:22;;;;;;;2.40;1.00;;;9.00;99.90;;;;;;5054596;28;20275;-60
2021/10/01 02:36:51;;;;;;;3.63;1.10;;;8.90;99.90;;;;;;5054797;28;20213;-60
2021/10/01 02:39:17;;;;;;;1.97;1.13;;;8.90;99.90;;;;;;5054563;28;20251;-59
2021/10/01 02:41:44;;;;;;;4.93;1.23;;;8.80;99.90;;;;;;5054824;28;20209;-60
2021/10/01 02:44:11;;;;;;;2.00;1.10;;;8.80;99.90;;;;;;5054547;28;20653;-60
2021/10/01 02:46:38;;;;;;;3.37;1.17;;;8.80;99.90;;;;;;5054851;28;20205;-59
2021/10/01 02:49:05;;;;;;;0.97;0.87;;;8.80;99.90;;;;;;5054700;28;20205;-60
2021/10/01 02:51:34;;;;;;;4.13;1.20;;;8.80;99.90;;;;;;5054628;28;20205;-59
2021/10/01 02:54:08;;;;;;;3.30;1.50;;;8.80;99.90;;;;;;5054300;28;20229;-60
2021/10/01 02:56:39;;;;;;;2.00;1.00;;;8.70;99.90;;;;;;5054457;28;20895;-60
2021/10/01 02:59:07;;;;;;;1.83;1.20;;;8.70;99.90;;;;;;5054277;28;20206;-59
2021/10/01 03:01:37;;;;;;;1.37;1.10;;;8.70;99.90;;;;;;5054602;28;20210;-60
2021/10/01 03:04:08;;;;;;;2.03;1.13;;;8.50;99.90;;;;;;5054318;28;20765;-60
2021/10/01 03:06:38;;;;;;;3.03;1.23;;;8.40;99.90;;;;;;5054610;28;20209;-59
2021/10/01 03:09:07;;;;;;;2.90;1.30;;;8.40;99.90;;;;;;5054651;28;20205;-59
2021/10/01 03:11:34;;;;;;;1.93;1.00;;;8.30;99.90;;;;;;5054359;28;20201;-59
2021/10/01 03:14:02;;;;;;;2.17;1.13;;;8.30;99.90;;;;;;5054269;28;20619;-60
2021/10/01 03:16:31;;;;;;;3.00;1.33;;;8.30;99.90;;;;;;5054197;28;20205;-59
2021/10/01 03:18:59;;;;;;;4.23;1.43;;;8.20;99.90;;;;;;5053922;28;20316;-60
2021/10/01 03:21:26;;;;;;;5.00;1.40;;;8.10;99.90;;;;;;5053833;28;20206;-60
2021/10/01 03:23:54;;;;;;;4.27;1.10;;;8.00;99.90;;;;;;5053708;28;20242;-60
2021/10/01 03:26:24;;;;;;;4.10;1.23;;;8.00;99.90;;;;;;5053998;28;20205;-60
2021/10/01 03:28:51;;;;;;;2.23;1.20;;;8.00;99.90;;;;;;5053673;28;20201;-60
2021/10/01 03:31:18;;;;;;;3.43;1.30;;;7.90;99.90;;;;;;5053726;28;20591;-59
2021/10/01 03:33:46;;;;;;;3.37;1.50;;;8.00;99.90;;;;;;5053687;28;20229;-60
2021/10/01 03:36:13;;;;;;;6.20;1.70;;;8.00;99.90;;;;;;5053555;28;20244;-59
2021/10/01 03:38:40;;;;;;;3.70;1.30;;;7.90;99.90;;;;;;5053234;28;20771;-60
2021/10/01 03:41:07;;;;;;;9.70;6.23;;;8.00;99.90;;;;;;5053066;28;20213;-59
2021/10/01 03:43:35;;;;;;;2.90;1.43;;;8.00;99.90;;;;;;5053135;28;20278;-59
2021/10/01 03:46:01;;;;;;;3.43;1.80;;;8.00;99.90;;;;;;5053515;28;20209;-60
2021/10/01 03:48:28;;;;;;;3.20;1.87;;;8.00;99.90;;;;;;5053167;28;20672;-60
2021/10/01 03:50:55;;;;;;;3.20;1.73;;;8.00;99.90;;;;;;5053665;28;20213;-60
2021/10/01 03:53:22;;;;;;;2.27;2.03;;;7.90;99.90;;;;;;5053348;28;20230;-60
2021/10/01 03:55:48;;;;;;;2.13;1.50;;;7.90;99.90;;;;;;5053611;28;20205;-60
2021/10/01 03:58:15;;;;;;;3.07;1.93;;;8.00;99.90;;;;;;5053235;28;20232;-59
2021/10/01 04:00:45;;;;;;;3.23;1.60;;;8.00;99.90;;;;;;5053760;28;20202;-59
2021/10/01 04:03:12;;;;;;;3.67;1.80;;;8.00;99.90;;;;;;5052856;28;20221;-59
2021/10/01 04:05:38;;;;;;;1.63;1.33;;;8.00;99.90;;;;;;5053025;28;20205;-60
2021/10/01 04:08:08;;;;;;;4.87;1.90;;;8.00;99.90;;;;;;5053014;28;20243;-59
2021/10/01 04:10:35;;;;;;;3.20;1.87;;;7.90;99.90;;;;;;5053186;28;20592;-59
2021/10/01 04:13:02;;;;;;;5.53;1.90;;;7.90;99.90;;;;;;5052979;28;20252;-59
2021/10/01 04:15:29;;;;;;;4.13;2.27;;;7.90;99.90;;;;;;5052801;28;20661;-59
2021/10/01 04:17:57;;;;;;;5.97;2.30;;;7.90;99.90;;;;;;5052691;28;20312;-59
2021/10/01 04:20:24;;;;;;;3.23;1.80;;;7.90;99.90;;;;;;5053079;28;20205;-59
2021/10/01 04:22:51;;;;;;;3.23;1.70;;;7.80;99.90;;;;;;5052871;28;20233;-60
2021/10/01 04:25:17;;;;;;;2.93;1.73;;;7.90;99.90;;;;;;5052813;28;20217;-60
2021/10/01 04:27:44;;;;;;;4.17;1.63;;;7.90;99.90;;;;;;5052422;28;20198;-60
2021/10/01 04:30:11;;;;;;;2.47;1.50;;;7.90;99.90;;;;;;5052317;28;20210;-61
2021/10/01 04:32:44;;;;;;;3.03;1.50;;;7.90;99.90;;;;;;5052661;28;20206;-60
2021/10/01 04:35:12;;;;;;;6.03;2.53;;;7.90;99.90;;;;;;5052444;28;20269;-59
2021/10/01 04:37:39;;;;;;;2.80;1.67;;;7.80;99.90;;;;;;5052568;28;20229;-59
2021/10/01 04:40:07;;;;;;;2.67;1.90;;;7.80;99.90;;;;;;5052743;28;20212;-60
2021/10/01 04:42:33;;;;;;;3.23;1.40;;;7.80;99.90;;;;;;5052164;28;20209;-60
2021/10/01 04:45:00;;;;;;;2.70;1.50;;;7.80;99.90;;;;;;5051905;28;20226;-60
2021/10/01 04:47:27;;;;;;;4.17;1.60;;;7.70;99.90;;;;;;5052162;28;20216;-60
2021/10/01 04:49:53;;;;;;;8.13;1.43;;;7.70;99.90;;;;;;5052080;28;20206;-60
2021/10/01 04:52:21;;;;;;;1.63;1.30;;;7.70;99.90;;;;;;5050828;28;20677;-59
2021/10/01 04:54:48;;;;;;;6.03;1.70;;;7.70;99.90;;;;;;5052033;28;20418;-60
2021/10/01 04:57:15;;;;;;;3.03;1.37;;;7.70;99.90;;;;;;5051810;28;20673;-59
2021/10/01 04:59:41;;;;;;;3.57;1.40;;;7.60;99.90;;;;;;5051815;28;20232;-60
2021/10/01 05:02:08;;;;;;;4.47;1.40;;;7.60;99.90;;;;;;5052080;28;20202;-59
2021/10/01 05:04:35;;;;;;;2.53;1.80;;;7.50;99.90;;;;;;5051500;28;20225;-59
2021/10/01 05:07:01;;;;;;;3.33;1.60;;;7.60;99.90;;;;;;5051832;28;20213;-60
2021/10/01 05:09:29;;;;;;;4.43;1.57;;;7.50;99.90;;;;;;5051885;28;20209;-60
2021/10/01 05:11:56;;;;;;;2.43;1.70;;;7.50;99.90;;;;;;5051421;28;20674;-59
2021/10/01 05:14:23;;;;;;;3.90;1.67;;;7.50;99.90;;;;;;5051274;28;20245;-59
2021/10/01 05:16:50;;;;;;;3.60;1.60;;;7.50;99.90;;;;;;5051370;28;20206;-60
2021/10/01 05:19:16;;;;;;;5.13;1.73;;;7.50;99.90;;;;;;5051540;28;20225;-60
2021/10/01 05:21:43;;;;;;;5.33;1.90;;;7.50;99.90;;;;;;5051696;28;20647;-59
2021/10/01 05:24:12;;;;;;;4.33;1.90;;;7.50;99.90;;;;;;5051161;28;20240;-60
2021/10/01 05:26:40;;;;;;;5.90;1.93;;;7.50;99.90;;;;;;5051279;28;20241;-60
2021/10/01 05:29:07;;;;;;;6.27;2.33;;;7.50;99.90;;;;;;5051389;28;20616;-60
2021/10/01 05:31:34;;;;;;;5.67;2.20;;;7.50;99.90;;;;;;5051542;28;20848;-60
2021/10/01 05:34:00;;;;;;;4.53;1.93;;;7.50;99.90;;;;;;5051507;28;20229;-60
2021/10/01 05:36:27;;;;;;;6.57;2.07;;;7.40;99.90;;;;;;5051502;28;20206;-58
2021/10/01 05:38:54;;;;;;;3.97;2.10;;;7.40;99.90;;;;;;5051178;28;20875;-60
2021/10/01 05:41:21;;;;;;;4.50;1.93;;;7.40;99.90;;;;;;5051410;28;20212;-60
2021/10/01 05:43:49;;;;;;;4.73;2.50;;;7.50;99.90;;;;;;5050952;28;20783;-59
2021/10/01 05:46:17;;;;;;;7.00;2.73;;;7.50;99.90;;;;;;5051434;28;20331;-60
2021/10/01 05:48:48;;;;;;;4.40;2.10;;;7.60;99.90;;;;;;5051137;28;20557;-60
2021/10/01 05:51:15;;;;;;;5.83;2.60;;;7.70;99.90;;;;;;5051696;28;20217;-60
2021/10/01 05:53:59;;;;;;;9.60;2.60;;;7.80;99.90;;;;;;5050838;28;20283;-60
2021/10/01 05:56:26;;;;;;;5.47;2.77;;;7.90;99.90;;;;;;5051528;28;20206;-60
2021/10/01 05:58:54;;;;;;;5.20;2.27;;;8.00;99.90;;;;;;5051051;28;20221;-60
2021/10/01 06:01:20;;;;;;;7.70;2.07;;;8.10;99.90;;;;;;5051052;28;20201;-60
2021/10/01 06:03:49;;;;;;;6.30;2.30;;;8.20;99.90;;;;;;5050309;28;20230;-60
2021/10/01 06:06:15;;;;;;;4.50;2.10;;;8.40;99.90;;;;;;5051194;28;20216;-61
2021/10/01 06:08:42;;;;;;;5.20;2.27;;;8.50;99.90;;;;;;5050846;28;20221;-60
2021/10/01 06:11:09;;;;;;;13.20;7.70;;;8.70;99.90;;;;;;5050984;28;20258;-60
2021/10/01 06:13:38;;;;;;;7.97;2.40;;;8.80;99.90;;;;;;5050773;28;20221;-60
2021/10/01 06:16:06;;;;;;;4.07;2.37;;;9.00;99.90;;;;;;5050815;28;20301;-60
2021/10/01 06:18:33;;;;;;;6.03;2.30;;;9.20;99.90;;;;;;5050343;28;20225;-61
2021/10/01 06:21:00;;;;;;;8.00;2.60;;;9.60;99.90;;;;;;5051056;28;20216;-60
2021/10/01 06:23:33;;;;;;;10.93;3.37;;;10.40;99.90;;;;;;5051295;28;20243;-61
2021/10/01 06:26:00;;;;;;;7.30;2.40;;;11.40;99.90;;;;;;5051131;28;20275;-60
2021/10/01 06:28:27;;;;;;;3.60;2.20;;;12.40;99.90;;;;;;5051042;28;20208;-61
2021/10/01 06:30:55;;;;;;;6.10;2.00;;;13.20;99.90;;;;;;5050794;28;20206;-61
2021/10/01 06:33:23;;;;;;;9.50;1.77;;;13.80;99.90;;;;;;5051219;28;20225;-60
2021/10/01 06:35:50;;;;;;;2.93;1.67;;;14.50;99.90;;;;;;5050971;28;20649;-60
2021/10/01 06:38:16;;;;;;;4.73;1.47;;;15.20;99.90;;;;;;5051057;28;20222;-60
2021/10/01 06:40:43;;;;;;;9.33;1.67;;;15.80;99.90;;;;;;5050878;28;20255;-61
2021/10/01 06:43:11;;;;;;;2.87;1.47;;;16.40;99.90;;;;;;5050412;28;20205;-61
2021/10/01 06:45:40;;;;;;;4.00;1.47;;;17.10;99.90;;;;;;5050445;28;20213;-60
2021/10/01 06:48:15;;;;;;;3.55;1.40;;;18.00;99.90;;;;;;5050798;28;20202;-60
2021/10/01 06:51:14;;;;;;;4.68;1.60;;;18.80;99.90;;;;;;5051546;28;20205;-61
2021/10/01 07:24:04;;;;;;;3.42;1.90;;;22.00;95.00;;;;;;5053399;28;20674;-61
2021/10/01 08:18:52;;;;;;;3.37;1.70;;;14.50;99.90;;;;;;5053716;28;20314;-62
2021/10/01 08:21:25;;;;;;;3.57;1.60;;;14.50;99.90;;;;;;5053334;28;20213;-61
2021/10/01 08:23:59;;;;;;;3.87;1.50;;;14.60;99.90;;;;;;5053037;28;20666;-61
2021/10/01 08:26:26;;;;;;;2.13;1.30;;;14.70;99.90;;;;;;5052865;28;20209;-61
2021/10/01 08:28:55;;;;;;;3.53;1.50;;;14.80;99.90;;;;;;5053186;28;20236;-61
2021/10/01 08:31:22;;;;;;;4.33;1.70;;;14.90;99.90;;;;;;5053404;28;20279;-61
2021/10/01 08:33:49;;;;;;;4.90;2.00;;;15.10;99.90;;;;;;5052798;28;20240;-61
2021/10/01 08:36:17;;;;;;;5.80;1.93;;;15.20;99.90;;;;;;5052841;28;20202;-61
2021/10/01 08:38:44;;;;;;;4.30;2.17;;;15.30;99.90;;;;;;5052849;28;20227;-61
2021/10/01 08:41:12;;;;;;;7.10;2.80;;;15.40;99.90;;;;;;5052881;28;20497;-61
2021/10/01 08:43:41;;;;;;;5.80;2.67;;;15.40;99.90;;;;;;5052328;28;20225;-61
2021/10/01 08:46:09;;;;;;;3.40;2.30;;;15.50;99.90;;;;;;5052394;28;20263;-61
2021/10/01 08:48:38;;;;;;;4.00;1.50;;;15.60;99.90;;;;;;5053121;28;20252;-62
2021/10/01 08:51:06;;;;;;;4.20;1.50;;;15.60;99.90;;;;;;5052546;28;20209;-65
2021/10/01 08:53:33;;;;;;;4.10;1.87;;;15.70;99.90;;;;;;5051987;28;20230;-61
2021/10/01 08:56:00;;;;;;;3.00;1.90;;;15.70;99.90;;;;;;5052084;28;20202;-61
2021/10/01 08:58:28;;;;;;;3.20;1.77;;;15.80;99.90;;;;;;5051953;28;20209;-61
2021/10/01 09:00:56;;;;;;;2.90;1.53;;;15.90;99.90;;;;;;5051956;28;20285;-63
2021/10/01 09:03:25;;;;;;;3.67;1.50;;;16.10;99.90;;;;;;5051922;28;20237;-61
2021/10/01 09:05:51;;;;;;;4.23;1.60;;;16.20;99.90;;;;;;5051867;28;20209;-61
2021/10/01 09:08:21;;;;;;;3.30;1.60;;;16.20;99.90;;;;;;5051783;28;20205;-62
2021/10/01 09:10:58;;;;;;;5.17;1.57;;;16.20;99.90;;;;;;5052085;28;20209;-61
2021/10/01 09:13:25;;;;;;;3.50;1.50;;;16.30;99.90;;;;;;5051584;28;20232;-62
2021/10/01 09:15:59;;;;;;;3.47;1.73;;;16.30;99.90;;;;;;5051685;28;20380;-61
2021/10/01 09:18:27;;;;;;;2.10;1.37;;;16.50;99.90;;;;;;5052342;28;20291;-62
2021/10/01 09:21:04;;;;;;;2.30;1.37;;;16.60;99.90;;;;;;5051779;28;20601;-61
2021/10/01 09:23:31;;;;;;;4.53;1.40;;;16.70;99.90;;;;;;5051297;28;20244;-61
2021/10/01 09:26:07;;;;;;;3.00;1.20;;;16.70;99.90;;;;;;5051496;28;20220;-61
2021/10/01 09:28:48;;;;;;;2.73;1.10;;;16.70;99.90;;;;;;5051711;28;20209;-62
2021/10/01 09:31:42;;;;;;;4.43;1.30;;;16.90;99.90;;;;;;5051958;28;20665;-62
2021/10/01 09:34:12;;;;;;;2.57;1.50;;;17.20;99.90;;;;;;5051581;28;20225;-61
2021/10/01 09:36:39;;;;;;;2.93;1.43;;;17.20;99.90;;;;;;5051238;28;20201;-61
2021/10/01 09:39:07;;;;;;;2.77;1.20;;;17.30;99.90;;;;;;5051065;28;20230;-61
2021/10/01 09:41:36;;;;;;;5.23;1.40;;;17.40;99.90;;;;;;5051299;28;20209;-61
2021/10/01 09:44:06;;;;;;;3.77;1.50;;;17.50;99.90;;;;;;5051217;28;20221;-62
2021/10/01 09:46:42;;;;;;;2.83;1.00;;;17.60;99.90;;;;;;5051365;28;20210;-61
2021/10/01 09:49:14;;;;;;;3.43;1.50;;;17.70;99.90;;;;;;5051148;28;20589;-61
2021/10/01 09:51:47;;;;;;;2.08;1.30;;;17.90;99.90;;;;;;5051275;28;20212;-61
2021/10/01 09:54:15;;;;;;;2.97;0.80;;;18.10;99.90;;;;;;5051066;28;20664;-61
2021/10/01 09:56:42;;;;;;;5.78;1.00;;;18.20;99.90;;;;;;5051508;28;20205;-62
2021/10/01 09:59:12;;;;;;;2.70;0.80;;;18.40;99.90;;;;;;5051789;28;20270;-62
2021/10/01 10:01:57;;;;;;;2.35;0.98;;;18.50;99.90;;;;;;5052262;28;20587;-61
2021/10/01 10:04:26;;;;;;;2.08;0.90;;;18.60;99.90;;;;;;5052530;28;20713;-63
2021/10/01 10:06:53;;;;;;;1.98;1.00;;;18.70;99.90;;;;;;5052098;28;20240;-62
2021/10/01 10:09:32;;;;;;;1.27;0.90;;;18.80;99.90;;;;;;5051536;28;20262;-62
2021/10/01 10:11:59;;;;;;;4.18;1.00;;;18.90;99.90;;;;;;5051330;28;20237;-62
2021/10/01 10:14:26;;;;;;;2.35;0.93;;;18.90;99.90;;;;;;5051103;28;20665;-62
2021/10/01 10:16:57;;;;;;;1.35;0.88;;;18.90;99.90;;;;;;5051165;28;20653;-62
2021/10/01 10:19:24;;;;;;;5.03;1.05;;;19.00;99.90;;;;;;5050556;28;20218;-62
2021/10/01 10:21:52;;;;;;;2.45;1.27;;;19.20;99.90;;;;;;5050677;28;20227;-62
2021/10/01 10:24:19;;;;;;;3.00;1.13;;;19.30;99.90;;;;;;5050364;28;20237;-62
2021/10/01 10:26:45;;;;;;;2.95;0.90;;;19.40;99.90;;;;;;5050812;28;20217;-68
2021/10/01 10:29:13;;;;;;;1.40;0.82;;;19.50;99.90;;;;;;5050693;28;20629;-62
2021/10/01 10:31:44;;;;;;;2.50;1.35;;;19.50;99.90;;;;;;5050755;28;20259;-63
2021/10/01 10:34:19;;;;;;;1.30;0.77;;;19.50;99.90;;;;;;5050557;28;20233;-62
2021/10/01 10:36:47;;;;;;;3.13;1.23;;;19.60;99.90;;;;;;5051385;28;20215;-62
2021/10/01 10:39:35;;;;;;;3.20;1.10;;;19.60;99.70;;;;;;5050598;28;20257;-63
2021/10/01 10:42:08;;;;;;;2.22;1.13;;;19.80;99.70;;;;;;5051607;28;20209;-62
2021/10/01 10:44:56;;;;;;;2.20;1.17;;;19.90;99.50;;;;;;5051390;28;20226;-62
2021/10/01 10:47:45;;;;;;;2.58;1.15;;;20.10;99.10;;;;;;5046557;28;20224;-62
2021/10/01 10:50:51;;;;;;;1.38;0.98;;;20.20;98.80;;;;;;5054129;28;20700;-62
2021/10/01 10:53:28;;;;;;;1.85;1.10;;;20.40;98.10;;;;;;5054209;28;20233;-62
2021/10/01 10:56:03;;;;;;;3.55;1.50;;;20.40;97.80;;;;;;5054526;28;20245;-62
2021/10/01 10:58:52;;;;;;;4.53;1.17;;;20.40;97.90;;;;;;5054176;28;20205;-62
2021/10/01 11:01:39;;;;;;;4.43;1.55;;;20.50;97.70;;;;;;5049775;28;20205;-62
2021/10/01 11:04:30;;;;;;;2.78;1.10;;;20.60;97.50;;;;;;5053816;28;20225;-62
2021/10/01 11:06:57;;;;;;;3.60;1.30;;;20.60;97.30;;;;;;5054095;28;20201;-62
2021/10/01 11:09:27;;;;;;;4.85;1.20;;;20.60;97.20;;;;;;5054006;28;20262;-62
2021/10/01 11:11:58;;;;;;;2.97;1.30;;;20.60;97.60;;;;;;5054096;28;20210;-62
2021/10/01 11:14:28;;;;;;;1.42;1.08;;;20.70;97.30;;;;;;5053802;28;20225;-62
2021/10/01 11:17:20;;;;;;;1.90;0.95;;;20.80;96.90;;;;;;5054241;28;20202;-62
2021/10/01 11:19:56;;;;;;;1.98;1.10;;;20.90;96.10;;;;;;5053497;28;20709;-62
2021/10/01 11:22:31;;;;;;;1.98;1.20;;;20.90;95.70;;;;;;5054051;28;20259;-62
2021/10/01 11:25:01;;;;;;;1.95;0.80;;;20.90;94.80;;;;;;5053058;28;20249;-61
2021/10/01 11:27:29;;;;;;;2.55;0.93;;;21.00;94.60;;;;;;5054044;28;20206;-61
2021/10/01 11:29:57;;;;;;;2.78;1.00;;;21.10;94.80;;;;;;5053677;28;20293;-62
2021/10/01 11:32:25;;;;;;;2.00;0.98;;;21.20;94.70;;;;;;5053776;28;20308;-62
2021/10/01 11:34:54;;;;;;;3.90;1.80;;;21.30;93.50;;;;;;5053381;28;20221;-62
2021/10/01 11:37:27;;;;;;;1.35;0.90;;;21.40;93.00;;;;;;5053341;28;20210;-62
2021/10/01 11:39:56;;;;;;;1.70;0.90;;;21.40;90.90;;;;;;5053417;28;20236;-62
2021/10/01 11:42:24;;;;;;;2.30;1.40;;;21.60;90.60;;;;;;5053783;28;20506;-62
2021/10/01 11:44:53;;;;;;;2.38;1.05;;;21.70;90.30;;;;;;5053081;28;20229;-61
2021/10/01 11:47:20;;;;;;;2.00;0.93;;;21.80;88.60;;;;;;5053469;28;20213;-61
2021/10/01 11:49:55;;;;;;;4.72;1.20;;;21.90;90.00;;;;;;5053122;28;20701;-61
2021/10/01 11:52:22;;;;;;;2.30;1.10;;;21.80;90.00;;;;;;5053466;28;20204;-61
2021/10/01 11:54:57;;;;;;;1.15;1.00;;;21.90;86.00;;;;;;5053428;28;20237;-61
2021/10/01 11:57:24;;;;;;;2.72;1.00;;;21.90;81.00;;;;;;5053922;28;20251;-61
2021/10/01 11:59:57;;;;;;;1.40;0.82;;;21.90;80.40;;;;;;5053251;28;20225;-62
2021/10/01 12:02:35;;;;;;;2.95;1.27;;;22.10;80.10;;;;;;5053500;28;20206;-62
2021/10/01 12:05:17;;;;;;;3.40;0.80;;;22.10;80.50;;;;;;5053344;28;20234;-62
2021/10/01 12:07:46;;;;;;;2.63;1.00;;;22.20;80.80;;;;;;5050040;28;20515;-73
2021/10/01 12:10:12;;;;;;;2.35;0.90;;;22.20;81.60;;;;;;5053967;28;20201;-63
2021/10/01 12:12:59;;;;;;;2.80;0.95;;;22.20;81.70;;;;;;5052813;28;20213;-63
2021/10/01 12:15:36;;;;;;;4.93;1.67;;;22.40;81.60;;;;;;5053287;28;20236;-64
2021/10/01 12:18:03;;;;;;;8.65;2.00;;;22.50;82.00;;;;;;5052929;28;20756;-66
2021/10/01 12:20:30;;;;;;;2.38;1.17;;;22.60;82.50;;;;;;5057699;28;20221;-66
2021/10/01 12:22:57;;;;;;;3.88;1.15;;;22.60;81.60;;;;;;5054387;28;20205;-64
2021/10/01 12:25:24;;;;;;;3.25;1.00;;;22.70;81.10;;;;;;5053286;28;20205;-65
2021/10/01 12:27:54;;;;;;;2.47;1.02;;;22.60;82.20;;;;;;5052681;28;20752;-63
2021/10/01 12:30:21;;;;;;;3.90;1.00;;;22.60;82.10;;;;;;5052662;28;20214;-66
2021/10/01 12:32:49;;;;;;;2.47;1.10;;;22.60;82.10;;;;;;5052755;28;20210;-68
2021/10/01 12:35:16;;;;;;;1.92;0.80;;;22.60;82.30;;;;;;5046862;28;20244;-65
2021/10/01 12:37:43;;;;;;;1.23;0.93;;;22.70;81.90;;;;;;5032257;28;20202;-62
2021/10/01 12:40:11;;;;;;;1.30;0.73;;;22.80;80.70;;;;;;5032490;28;20233;-69
2021/10/01 12:42:40;;;;;;;1.45;0.98;;;22.90;80.80;;;;;;5032553;28;20271;-65
2021/10/01 12:45:11;;;;;;;3.80;0.73;;;23.00;81.60;;;;;;5032724;28;20257;-65
2021/10/01 12:47:40;;;;;;;1.25;1.00;;;22.80;82.00;;;;;;5032559;28;20213;-65
2021/10/01 12:50:10;;;;;;;3.08;0.93;;;22.80;81.90;;;;;;5052832;28;20190;-64
2021/10/01 12:52:38;;;;;;;1.77;1.25;;;22.60;81.90;;;;;;5072560;28;20213;-65
2021/10/01 12:55:07;;;;;;;3.63;1.20;;;22.60;82.30;;;;;;5072605;28;20232;-65
2021/10/01 12:57:39;;;;;;;1.17;1.05;;;22.70;82.10;;;;;;5072264;28;20208;-66
2021/10/01 13:00:16;;;;;;;2.92;0.88;;;22.90;81.60;;;;;;5071858;28;20224;-65
2021/10/01 13:02:44;;;;;;;2.00;1.08;;;23.00;80.50;;;;;;5071872;28;20211;-64
2021/10/01 13:05:15;;;;;;;2.17;0.93;;;23.00;80.50;;;;;;5071977;28;20595;-65
2021/10/01 13:07:44;;;;;;;1.65;0.90;;;22.90;80.00;;;;;;5072099;28;20285;-62
2021/10/01 13:10:29;;;;;;;1.35;1.00;;;22.90;79.60;;;;;;5071819;28;20281;-65
2021/10/01 13:12:59;;;;;;;2.33;1.00;;;23.00;79.00;;;;;;5071222;28;20625;-61
2021/10/01 13:15:29;;;;;;;1.73;0.80;;;23.20;79.50;;;;;;5071634;28;20563;-63
2021/10/01 13:18:05;;;;;;;2.42;0.90;;;23.20;79.40;;;;;;5072184;28;20209;-64
2021/10/01 13:20:36;;;;;;;1.30;0.88;;;23.30;78.70;;;;;;5071381;28;20220;-63
2021/10/01 13:23:06;;;;;;;2.47;1.23;;;23.40;78.00;;;;;;5071440;28;20205;-62
2021/10/01 13:25:35;;;;;;;4.35;0.80;;;23.40;78.40;;;;;;5071285;28;20205;-64
2021/10/01 13:28:03;;;;;;;0.90;0.80;;;23.40;77.80;;;;;;5071812;28;20213;-64
2021/10/01 13:30:30;;;;;;;2.38;1.05;;;23.40;77.50;;;;;;5071842;28;20201;-63
2021/10/01 13:32:57;;;;;;;3.13;1.25;;;23.50;77.70;;;;;;5071481;28;20413;-63
2021/10/01 13:35:25;;;;;;;2.15;0.95;;;23.50;77.30;;;;;;5071293;28;20232;-64
2021/10/01 13:37:53;;;;;;;1.15;0.93;;;23.60;77.80;;;;;;5071242;28;20205;-64
2021/10/01 13:40:20;;;;;;;2.35;1.08;;;23.60;77.80;;;;;;5071047;28;20221;-64
2021/10/01 13:42:47;;;;;;;2.22;1.20;;;23.60;77.60;;;;;;5071591;28;20227;-64
2021/10/01 13:45:15;;;;;;;1.63;0.88;;;23.60;77.90;;;;;;5071351;28;20270;-64
2021/10/01 13:47:42;;;;;;;2.20;1.10;;;23.70;77.50;;;;;;5071219;28;20212;-63
2021/10/01 13:50:11;;;;;;;1.50;1.10;;;23.70;77.70;;;;;;5071264;28;20201;-64
2021/10/01 13:52:39;;;;;;;3.30;0.98;;;23.70;77.40;;;;;;5071050;28;20208;-63
2021/10/01 13:55:09;;;;;;;5.03;1.20;;;23.60;77.50;;;;;;5070936;28;20229;-63
2021/10/01 13:57:36;;;;;;;3.88;1.25;;;23.60;77.20;;;;;;5071010;28;20204;-64
2021/10/01 14:00:05;;;;;;;2.30;1.30;;;23.60;77.10;;;;;;5071061;28;20215;-64
2021/10/01 14:02:35;;;;;;;3.03;1.73;;;23.30;78.60;;;;;;5070937;28;20692;-64
2021/10/01 14:05:03;;;;;;;1.75;1.13;;;23.30;79.20;;;;;;5070856;28;20262;-64
2021/10/01 14:07:29;;;;;;;1.27;1.08;;;23.40;79.00;;;;;;5071335;28;20241;-63
2021/10/01 14:09:59;;;;;;;2.53;1.17;;;23.40;78.70;;;;;;5071135;28;20230;-66
2021/10/01 14:12:28;;;;;;;1.63;1.08;;;23.60;78.80;;;;;;5070869;28;20208;-64
2021/10/01 14:14:55;;;;;;;2.95;1.08;;;23.70;78.80;;;;;;5070647;28;20316;-64
2021/10/01 14:17:22;;;;;;;2.35;1.30;;;23.80;78.70;;;;;;5071147;28;20256;-64
2021/10/01 14:19:48;;;;;;;3.83;1.65;;;23.70;79.00;;;;;;5070306;28;20244;-64
2021/10/01 14:22:15;;;;;;;2.47;1.48;;;23.80;79.90;;;;;;5070247;28;20228;-65
2021/10/01 14:24:42;;;;;;;3.67;1.55;;;23.90;79.20;;;;;;5069889;28;20236;-63
2021/10/01 14:27:09;;;;;;;4.07;1.52;;;23.90;78.60;;;;;;5070859;28;20213;-63
2021/10/01 14:29:37;;;;;;;2.55;1.52;;;23.90;78.60;;;;;;5070572;28;20703;-63